Terminal Aerodrome Forecast
Issued by NWS

Home | Current Version | Previous Version | Text Only | Print | Product List | Glossary On
Versions: 1 2 3 4 5 6 7 8 9 10 11 12 13 14 15 16 17 18 19 20 21
000
FTAK31 PAJN 221700
TAFAWG
TAF
PAWG 221736Z 2218/2318 11007KT P6SM -SHRA FEW010 BKN035 BKN060
     FM230300 12005KT P6SM VCSH SCT040 BKN080
     FM230700 10003KT P6SM BKN100
     FM231200 VRB03KT P6SM SCT120
      AMD LTD TO CLD VIS AND WIND 2306/2315=

USA.gov is the U.S. government's official web portal to all federal, state and local government web resources and services.